El Bolson, Argentina
Current Conditions -  °F | °C
As of 2:00 AM on Sunday 26 Oct 2014 (Local Time) from SAZS Reporting Station
Clear Clear  
Wind Chill: 38°   Ceiling: Unl
Heat Index: 41°   Visibility: 6mi
Dew Point: 32°   Wind: 5mph
Humidity: 70%   Direction: 290°WNW
Pressure: 29.85"   Gusts: NA
Location:  41.97°S, 71.52°W
Report Text: SAZS 260500Z 29004KT CAVOK 05/00 Q1011
Loading
Personal Weather Stations






























Interactive Weather Map
Tropical Storm Tracking
New forecast layout! Learn more

10-Day Weather Forecast

Advertisements
Track Severe Weather on mobile